sensor_id;sensor_type;location;lat;lon;timestamp;P1;durP1;ratioP1;P2;durP2;ratioP2
45274;SDS011;31019;43.780;25.948;2024-01-16T00:01:18;37.42;;;35.03;;
45274;SDS011;31019;43.780;25.948;2024-01-16T00:03:46;37.53;;;35.22;;
45274;SDS011;31019;43.780;25.948;2024-01-16T00:06:13;29.33;;;27.42;;
45274;SDS011;31019;43.780;25.948;2024-01-16T00:08:40;29.33;;;27.33;;
45274;SDS011;31019;43.780;25.948;2024-01-16T00:11:07;30.52;;;27.95;;
45274;SDS011;31019;43.780;25.948;2024-01-16T00:13:34;27.08;;;25.17;;
45274;SDS011;31019;43.780;25.948;2024-01-16T00:16:02;29.15;;;27.00;;
45274;SDS011;31019;43.780;25.948;2024-01-16T00:18:29;33.33;;;30.88;;
45274;SDS011;31019;43.780;25.948;2024-01-16T00:20:58;31.10;;;28.80;;
45274;SDS011;31019;43.780;25.948;2024-01-16T00:23:27;29.13;;;27.02;;
45274;SDS011;31019;43.780;25.948;2024-01-16T00:25:56;31.60;;;29.40;;
45274;SDS011;31019;43.780;25.948;2024-01-16T00:28:23;28.30;;;26.27;;
45274;SDS011;31019;43.780;25.948;2024-01-16T00:30:50;34.35;;;32.05;;
45274;SDS011;31019;43.780;25.948;2024-01-16T00:33:17;37.50;;;35.10;;
45274;SDS011;31019;43.780;25.948;2024-01-16T00:35:44;37.60;;;35.10;;
45274;SDS011;31019;43.780;25.948;2024-01-16T00:38:12;33.25;;;30.95;;
45274;SDS011;31019;43.780;25.948;2024-01-16T00:40:39;27.58;;;25.58;;
45274;SDS011;31019;43.780;25.948;2024-01-16T00:43:06;31.95;;;29.58;;
45274;SDS011;31019;43.780;25.948;2024-01-16T00:45:33;34.75;;;32.55;;
45274;SDS011;31019;43.780;25.948;2024-01-16T00:48:00;30.52;;;28.42;;
45274;SDS011;31019;43.780;25.948;2024-01-16T00:50:27;31.98;;;29.77;;
45274;SDS011;31019;43.780;25.948;2024-01-16T00:52:55;34.65;;;31.92;;
45274;SDS011;31019;43.780;25.948;2024-01-16T00:55:23;34.92;;;32.42;;
45274;SDS011;31019;43.780;25.948;2024-01-16T00:57:51;34.85;;;32.22;;
45274;SDS011;31019;43.780;25.948;2024-01-16T01:00:19;38.90;;;36.30;;
45274;SDS011;31019;43.780;25.948;2024-01-16T01:02:45;35.70;;;33.50;;
45274;SDS011;31019;43.780;25.948;2024-01-16T01:05:12;30.77;;;28.67;;
45274;SDS011;31019;43.780;25.948;2024-01-16T01:07:42;35.35;;;33.00;;
45274;SDS011;31019;43.780;25.948;2024-01-16T01:10:12;35.67;;;33.17;;
45274;SDS011;31019;43.780;25.948;2024-01-16T01:12:40;32.20;;;29.67;;
45274;SDS011;31019;43.780;25.948;2024-01-16T01:15:07;30.73;;;28.55;;
45274;SDS011;31019;43.780;25.948;2024-01-16T01:17:35;31.20;;;29.10;;
45274;SDS011;31019;43.780;25.948;2024-01-16T01:20:02;30.92;;;28.73;;
45274;SDS011;31019;43.780;25.948;2024-01-16T01:22:29;31.40;;;29.10;;
45274;SDS011;31019;43.780;25.948;2024-01-16T01:24:56;36.25;;;33.85;;
45274;SDS011;31019;43.780;25.948;2024-01-16T01:27:23;34.72;;;32.42;;
45274;SDS011;31019;43.780;25.948;2024-01-16T01:29:51;32.67;;;30.17;;
45274;SDS011;31019;43.780;25.948;2024-01-16T01:32:18;33.67;;;31.38;;
45274;SDS011;31019;43.780;25.948;2024-01-16T01:34:45;35.80;;;33.22;;
45274;SDS011;31019;43.780;25.948;2024-01-16T01:37:12;34.55;;;31.73;;
45274;SDS011;31019;43.780;25.948;2024-01-16T01:39:39;31.30;;;29.00;;
45274;SDS011;31019;43.780;25.948;2024-01-16T01:42:09;32.45;;;30.05;;
45274;SDS011;31019;43.780;25.948;2024-01-16T01:44:36;29.10;;;27.00;;
45274;SDS011;31019;43.780;25.948;2024-01-16T01:47:04;31.55;;;29.25;;
45274;SDS011;31019;43.780;25.948;2024-01-16T01:49:31;32.85;;;30.15;;
45274;SDS011;31019;43.780;25.948;2024-01-16T01:51:58;34.17;;;31.63;;
45274;SDS011;31019;43.780;25.948;2024-01-16T01:54:25;37.00;;;34.40;;
45274;SDS011;31019;43.780;25.948;2024-01-16T01:56:53;43.28;;;39.97;;
45274;SDS011;31019;43.780;25.948;2024-01-16T01:59:20;42.65;;;39.65;;
45274;SDS011;31019;43.780;25.948;2024-01-16T02:01:49;45.42;;;42.10;;
45274;SDS011;31019;43.780;25.948;2024-01-16T02:04:20;53.55;;;49.47;;
45274;SDS011;31019;43.780;25.948;2024-01-16T02:06:48;61.47;;;56.97;;
45274;SDS011;31019;43.780;25.948;2024-01-16T02:09:15;86.28;;;79.68;;
45274;SDS011;31019;43.780;25.948;2024-01-16T02:11:42;91.50;;;84.68;;
45274;SDS011;31019;43.780;25.948;2024-01-16T02:14:09;92.60;;;85.78;;
45274;SDS011;31019;43.780;25.948;2024-01-16T02:16:37;91.55;;;84.65;;
45274;SDS011;31019;43.780;25.948;2024-01-16T02:19:05;101.68;;;94.18;;
45274;SDS011;31019;43.780;25.948;2024-01-16T02:21:35;101.28;;;93.57;;
45274;SDS011;31019;43.780;25.948;2024-01-16T02:24:08;99.43;;;91.93;;
45274;SDS011;31019;43.780;25.948;2024-01-16T02:26:36;113.53;;;105.00;;
45274;SDS011;31019;43.780;25.948;2024-01-16T02:29:03;119.50;;;110.55;;
45274;SDS011;31019;43.780;25.948;2024-01-16T02:31:30;119.53;;;110.63;;
45274;SDS011;31019;43.780;25.948;2024-01-16T02:33:57;115.30;;;106.75;;
45274;SDS011;31019;43.780;25.948;2024-01-16T02:36:24;121.22;;;112.22;;
45274;SDS011;31019;43.780;25.948;2024-01-16T02:38:52;116.13;;;107.82;;
45274;SDS011;31019;43.780;25.948;2024-01-16T02:41:20;106.22;;;98.82;;
45274;SDS011;31019;43.780;25.948;2024-01-16T02:43:47;62.35;;;58.08;;
45274;SDS011;31019;43.780;25.948;2024-01-16T02:46:14;45.55;;;42.65;;
45274;SDS011;31019;43.780;25.948;2024-01-16T02:48:41;28.60;;;26.60;;
45274;SDS011;31019;43.780;25.948;2024-01-16T02:51:08;33.15;;;30.85;;
45274;SDS011;31019;43.780;25.948;2024-01-16T02:53:35;32.08;;;30.17;;
45274;SDS011;31019;43.780;25.948;2024-01-16T02:56:02;26.75;;;25.15;;
45274;SDS011;31019;43.780;25.948;2024-01-16T02:58:31;26.08;;;24.58;;
45274;SDS011;31019;43.780;25.948;2024-01-16T03:00:57;29.10;;;27.10;;
45274;SDS011;31019;43.780;25.948;2024-01-16T03:03:24;32.92;;;31.13;;
45274;SDS011;31019;43.780;25.948;2024-01-16T03:05:51;33.10;;;31.30;;
45274;SDS011;31019;43.780;25.948;2024-01-16T03:08:18;37.63;;;35.65;;
45274;SDS011;31019;43.780;25.948;2024-01-16T03:10:45;31.30;;;29.52;;
45274;SDS011;31019;43.780;25.948;2024-01-16T03:13:12;31.95;;;30.17;;
45274;SDS011;31019;43.780;25.948;2024-01-16T03:15:40;33.17;;;31.30;;
45274;SDS011;31019;43.780;25.948;2024-01-16T03:18:07;31.10;;;29.30;;
45274;SDS011;31019;43.780;25.948;2024-01-16T03:20:34;34.25;;;32.38;;
45274;SDS011;31019;43.780;25.948;2024-01-16T03:23:01;32.63;;;30.30;;
45274;SDS011;31019;43.780;25.948;2024-01-16T03:25:28;32.38;;;30.58;;
45274;SDS011;31019;43.780;25.948;2024-01-16T03:27:54;34.35;;;32.35;;
45274;SDS011;31019;43.780;25.948;2024-01-16T03:30:21;31.83;;;29.95;;
45274;SDS011;31019;43.780;25.948;2024-01-16T03:32:50;34.50;;;32.50;;
45274;SDS011;31019;43.780;25.948;2024-01-16T03:35:17;37.03;;;34.35;;
45274;SDS011;31019;43.780;25.948;2024-01-16T03:37:44;34.25;;;32.35;;
45274;SDS011;31019;43.780;25.948;2024-01-16T03:40:11;37.20;;;34.97;;
45274;SDS011;31019;43.780;25.948;2024-01-16T03:42:38;37.20;;;34.47;;
45274;SDS011;31019;43.780;25.948;2024-01-16T03:45:05;34.38;;;31.98;;
45274;SDS011;31019;43.780;25.948;2024-01-16T03:47:33;35.85;;;33.45;;
45274;SDS011;31019;43.780;25.948;2024-01-16T03:50:02;41.08;;;37.97;;
45274;SDS011;31019;43.780;25.948;2024-01-16T03:52:29;40.75;;;37.88;;
45274;SDS011;31019;43.780;25.948;2024-01-16T03:54:56;41.47;;;38.67;;
45274;SDS011;31019;43.780;25.948;2024-01-16T03:57:23;46.78;;;43.28;;
45274;SDS011;31019;43.780;25.948;2024-01-16T03:59:50;49.08;;;45.67;;
45274;SDS011;31019;43.780;25.948;2024-01-16T04:02:17;50.90;;;47.60;;
45274;SDS011;31019;43.780;25.948;2024-01-16T04:04:43;53.25;;;49.65;;
45274;SDS011;31019;43.780;25.948;2024-01-16T04:07:12;59.60;;;54.67;;
45274;SDS011;31019;43.780;25.948;2024-01-16T04:09:38;58.20;;;54.10;;
45274;SDS011;31019;43.780;25.948;2024-01-16T04:12:05;57.95;;;53.85;;
45274;SDS011;31019;43.780;25.948;2024-01-16T04:14:33;62.85;;;58.65;;
45274;SDS011;31019;43.780;25.948;2024-01-16T04:17:01;63.10;;;58.80;;
45274;SDS011;31019;43.780;25.948;2024-01-16T04:19:28;72.95;;;67.85;;
45274;SDS011;31019;43.780;25.948;2024-01-16T04:21:58;77.22;;;71.53;;
45274;SDS011;31019;43.780;25.948;2024-01-16T04:24:27;94.88;;;88.00;;
45274;SDS011;31019;43.780;25.948;2024-01-16T04:26:53;93.43;;;86.45;;
45274;SDS011;31019;43.780;25.948;2024-01-16T04:29:20;96.28;;;88.82;;
45274;SDS011;31019;43.780;25.948;2024-01-16T04:31:47;102.05;;;93.93;;
45274;SDS011;31019;43.780;25.948;2024-01-16T04:34:14;102.53;;;94.32;;
45274;SDS011;31019;43.780;25.948;2024-01-16T04:36:41;95.85;;;88.65;;
45274;SDS011;31019;43.780;25.948;2024-01-16T04:39:08;89.97;;;83.07;;
45274;SDS011;31019;43.780;25.948;2024-01-16T04:41:37;84.65;;;78.03;;
45274;SDS011;31019;43.780;25.948;2024-01-16T04:44:04;94.25;;;87.05;;
45274;SDS011;31019;43.780;25.948;2024-01-16T04:46:30;97.72;;;90.20;;
45274;SDS011;31019;43.780;25.948;2024-01-16T04:48:57;100.30;;;92.40;;
45274;SDS011;31019;43.780;25.948;2024-01-16T04:51:24;102.18;;;94.63;;
45274;SDS011;31019;43.780;25.948;2024-01-16T04:53:51;113.65;;;105.40;;
45274;SDS011;31019;43.780;25.948;2024-01-16T04:56:18;116.10;;;107.20;;
45274;SDS011;31019;43.780;25.948;2024-01-16T04:58:47;107.88;;;99.50;;
45274;SDS011;31019;43.780;25.948;2024-01-16T05:01:14;90.47;;;84.18;;
45274;SDS011;31019;43.780;25.948;2024-01-16T05:03:41;82.30;;;76.65;;
45274;SDS011;31019;43.780;25.948;2024-01-16T05:06:12;109.97;;;101.60;;
45274;SDS011;31019;43.780;25.948;2024-01-16T05:08:39;109.68;;;101.25;;
45274;SDS011;31019;43.780;25.948;2024-01-16T05:11:06;130.48;;;119.68;;
45274;SDS011;31019;43.780;25.948;2024-01-16T05:13:33;130.90;;;120.50;;
45274;SDS011;31019;43.780;25.948;2024-01-16T05:16:02;118.07;;;108.63;;
45274;SDS011;31019;43.780;25.948;2024-01-16T05:18:29;122.68;;;113.07;;
45274;SDS011;31019;43.780;25.948;2024-01-16T05:20:57;123.03;;;112.93;;
45274;SDS011;31019;43.780;25.948;2024-01-16T05:23:24;141.32;;;130.10;;
45274;SDS011;31019;43.780;25.948;2024-01-16T05:25:51;131.45;;;120.95;;
45274;SDS011;31019;43.780;25.948;2024-01-16T05:28:18;124.40;;;114.35;;
45274;SDS011;31019;43.780;25.948;2024-01-16T05:30:45;128.27;;;118.22;;
45274;SDS011;31019;43.780;25.948;2024-01-16T05:33:13;132.93;;;122.60;;
45274;SDS011;31019;43.780;25.948;2024-01-16T05:35:41;115.30;;;106.03;;
45274;SDS011;31019;43.780;25.948;2024-01-16T05:38:07;128.88;;;118.35;;
45274;SDS011;31019;43.780;25.948;2024-01-16T05:40:37;132.57;;;121.82;;
45274;SDS011;31019;43.780;25.948;2024-01-16T05:43:04;124.63;;;114.65;;
45274;SDS011;31019;43.780;25.948;2024-01-16T05:45:31;121.47;;;111.68;;
45274;SDS011;31019;43.780;25.948;2024-01-16T05:47:59;131.57;;;120.93;;
45274;SDS011;31019;43.780;25.948;2024-01-16T05:50:27;127.68;;;117.40;;
45274;SDS011;31019;43.780;25.948;2024-01-16T05:52:55;113.78;;;104.65;;
45274;SDS011;31019;43.780;25.948;2024-01-16T05:55:22;111.10;;;102.18;;
45274;SDS011;31019;43.780;25.948;2024-01-16T05:57:48;112.65;;;103.75;;
45274;SDS011;31019;43.780;25.948;2024-01-16T06:00:15;118.55;;;109.35;;
45274;SDS011;31019;43.780;25.948;2024-01-16T06:02:43;113.20;;;104.55;;
45274;SDS011;31019;43.780;25.948;2024-01-16T06:05:10;105.90;;;98.15;;
45274;SDS011;31019;43.780;25.948;2024-01-16T06:07:38;113.32;;;104.40;;
45274;SDS011;31019;43.780;25.948;2024-01-16T06:10:08;110.30;;;102.18;;
45274;SDS011;31019;43.780;25.948;2024-01-16T06:12:38;112.80;;;104.60;;
45274;SDS011;31019;43.780;25.948;2024-01-16T06:15:05;119.38;;;110.43;;
45274;SDS011;31019;43.780;25.948;2024-01-16T06:17:32;111.75;;;102.95;;
45274;SDS011;31019;43.780;25.948;2024-01-16T06:19:59;119.97;;;110.82;;
45274;SDS011;31019;43.780;25.948;2024-01-16T06:22:26;122.97;;;113.93;;
45274;SDS011;31019;43.780;25.948;2024-01-16T06:24:55;124.70;;;115.30;;
45274;SDS011;31019;43.780;25.948;2024-01-16T06:27:22;105.20;;;97.22;;
45274;SDS011;31019;43.780;25.948;2024-01-16T06:29:49;98.13;;;90.82;;
45274;SDS011;31019;43.780;25.948;2024-01-16T06:32:16;110.60;;;102.47;;
45274;SDS011;31019;43.780;25.948;2024-01-16T06:34:43;100.22;;;93.15;;
45274;SDS011;31019;43.780;25.948;2024-01-16T06:37:10;101.20;;;94.10;;
45274;SDS011;31019;43.780;25.948;2024-01-16T06:39:37;110.00;;;102.10;;
45274;SDS011;31019;43.780;25.948;2024-01-16T06:42:06;119.90;;;111.10;;
45274;SDS011;31019;43.780;25.948;2024-01-16T06:44:34;101.90;;;94.40;;
45274;SDS011;31019;43.780;25.948;2024-01-16T06:47:01;105.82;;;98.20;;
45274;SDS011;31019;43.780;25.948;2024-01-16T06:49:27;105.07;;;97.63;;
45274;SDS011;31019;43.780;25.948;2024-01-16T06:51:54;98.32;;;91.63;;
45274;SDS011;31019;43.780;25.948;2024-01-16T06:54:22;110.53;;;101.72;;
45274;SDS011;31019;43.780;25.948;2024-01-16T06:56:49;105.32;;;98.13;;
45274;SDS011;31019;43.780;25.948;2024-01-16T06:59:17;112.90;;;105.40;;
45274;SDS011;31019;43.780;25.948;2024-01-16T07:01:46;89.97;;;84.07;;
45274;SDS011;31019;43.780;25.948;2024-01-16T07:04:13;91.63;;;85.82;;
45274;SDS011;31019;43.780;25.948;2024-01-16T07:06:40;73.60;;;68.85;;
45274;SDS011;31019;43.780;25.948;2024-01-16T07:09:08;74.40;;;69.88;;
45274;SDS011;31019;43.780;25.948;2024-01-16T07:11:36;58.28;;;54.97;;
45274;SDS011;31019;43.780;25.948;2024-01-16T07:14:03;52.85;;;49.75;;
45274;SDS011;31019;43.780;25.948;2024-01-16T07:16:34;56.10;;;52.70;;
45274;SDS011;31019;43.780;25.948;2024-01-16T07:19:01;52.60;;;49.30;;
45274;SDS011;31019;43.780;25.948;2024-01-16T07:21:28;55.17;;;51.78;;
45274;SDS011;31019;43.780;25.948;2024-01-16T07:23:55;58.80;;;55.55;;
45274;SDS011;31019;43.780;25.948;2024-01-16T07:26:23;50.03;;;47.22;;
45274;SDS011;31019;43.780;25.948;2024-01-16T07:28:50;51.38;;;48.47;;
45274;SDS011;31019;43.780;25.948;2024-01-16T07:31:17;54.25;;;51.25;;
45274;SDS011;31019;43.780;25.948;2024-01-16T07:33:45;62.03;;;58.63;;
45274;SDS011;31019;43.780;25.948;2024-01-16T07:36:13;43.22;;;40.83;;
45274;SDS011;31019;43.780;25.948;2024-01-16T07:38:41;37.70;;;35.50;;
45274;SDS011;31019;43.780;25.948;2024-01-16T07:41:07;36.20;;;33.83;;
45274;SDS011;31019;43.780;25.948;2024-01-16T07:43:34;25.92;;;24.23;;
45274;SDS011;31019;43.780;25.948;2024-01-16T07:46:01;28.33;;;26.52;;
45274;SDS011;31019;43.780;25.948;2024-01-16T07:48:29;58.80;;;55.50;;
45274;SDS011;31019;43.780;25.948;2024-01-16T07:50:57;37.78;;;35.20;;
45274;SDS011;31019;43.780;25.948;2024-01-16T07:53:24;30.33;;;28.42;;
45274;SDS011;31019;43.780;25.948;2024-01-16T07:55:52;37.42;;;35.13;;
45274;SDS011;31019;43.780;25.948;2024-01-16T07:58:20;45.20;;;42.70;;
45274;SDS011;31019;43.780;25.948;2024-01-16T08:00:47;26.95;;;25.25;;
45274;SDS011;31019;43.780;25.948;2024-01-16T08:03:14;22.20;;;20.80;;
45274;SDS011;31019;43.780;25.948;2024-01-16T08:05:41;23.90;;;22.50;;
45274;SDS011;31019;43.780;25.948;2024-01-16T08:08:11;25.80;;;24.20;;
45274;SDS011;31019;43.780;25.948;2024-01-16T08:10:39;26.08;;;24.38;;
45274;SDS011;31019;43.780;25.948;2024-01-16T08:13:07;26.17;;;24.52;;
45274;SDS011;31019;43.780;25.948;2024-01-16T08:15:34;24.10;;;22.50;;
45274;SDS011;31019;43.780;25.948;2024-01-16T08:18:02;26.17;;;24.48;;
45274;SDS011;31019;43.780;25.948;2024-01-16T08:20:29;24.20;;;22.70;;
45274;SDS011;31019;43.780;25.948;2024-01-16T08:22:56;23.83;;;22.33;;
45274;SDS011;31019;43.780;25.948;2024-01-16T08:25:24;22.45;;;21.05;;
45274;SDS011;31019;43.780;25.948;2024-01-16T08:27:51;22.70;;;21.30;;
45274;SDS011;31019;43.780;25.948;2024-01-16T08:30:18;23.70;;;22.20;;
45274;SDS011;31019;43.780;25.948;2024-01-16T08:32:45;22.70;;;21.30;;
45274;SDS011;31019;43.780;25.948;2024-01-16T08:35:12;24.58;;;23.02;;
45274;SDS011;31019;43.780;25.948;2024-01-16T08:37:39;56.70;;;53.55;;
45274;SDS011;31019;43.780;25.948;2024-01-16T08:40:09;25.90;;;24.30;;
45274;SDS011;31019;43.780;25.948;2024-01-16T08:42:40;24.05;;;22.55;;
45274;SDS011;31019;43.780;25.948;2024-01-16T08:45:07;25.55;;;23.95;;
45274;SDS011;31019;43.780;25.948;2024-01-16T08:47:34;29.42;;;27.63;;
45274;SDS011;31019;43.780;25.948;2024-01-16T08:50:01;35.00;;;32.95;;
45274;SDS011;31019;43.780;25.948;2024-01-16T08:52:28;35.67;;;33.58;;
45274;SDS011;31019;43.780;25.948;2024-01-16T08:54:55;32.80;;;30.98;;
45274;SDS011;31019;43.780;25.948;2024-01-16T08:57:23;45.65;;;43.05;;
45274;SDS011;31019;43.780;25.948;2024-01-16T08:59:51;47.78;;;45.08;;
45274;SDS011;31019;43.780;25.948;2024-01-16T09:02:18;44.10;;;41.58;;
45274;SDS011;31019;43.780;25.948;2024-01-16T09:04:45;39.55;;;37.35;;
45274;SDS011;31019;43.780;25.948;2024-01-16T09:07:12;51.25;;;48.20;;
45274;SDS011;31019;43.780;25.948;2024-01-16T09:09:41;49.72;;;46.53;;
45274;SDS011;31019;43.780;25.948;2024-01-16T09:12:08;48.15;;;45.35;;
45274;SDS011;31019;43.780;25.948;2024-01-16T09:14:35;38.22;;;36.08;;
45274;SDS011;31019;43.780;25.948;2024-01-16T09:17:03;41.10;;;38.78;;
45274;SDS011;31019;43.780;25.948;2024-01-16T09:19:30;39.25;;;36.60;;
45274;SDS011;31019;43.780;25.948;2024-01-16T09:21:57;49.90;;;46.70;;
45274;SDS011;31019;43.780;25.948;2024-01-16T09:24:24;41.75;;;39.45;;
45274;SDS011;31019;43.780;25.948;2024-01-16T09:26:51;43.17;;;40.78;;
45274;SDS011;31019;43.780;25.948;2024-01-16T09:29:18;42.78;;;40.33;;
45274;SDS011;31019;43.780;25.948;2024-01-16T09:31:45;53.50;;;50.38;;
45274;SDS011;31019;43.780;25.948;2024-01-16T09:34:14;55.17;;;51.97;;
45274;SDS011;31019;43.780;25.948;2024-01-16T09:36:41;50.20;;;47.33;;
45274;SDS011;31019;43.780;25.948;2024-01-16T09:39:07;52.17;;;49.08;;
45274;SDS011;31019;43.780;25.948;2024-01-16T09:41:36;37.47;;;35.17;;
45274;SDS011;31019;43.780;25.948;2024-01-16T09:44:03;32.03;;;30.23;;
45274;SDS011;31019;43.780;25.948;2024-01-16T09:46:30;31.92;;;30.23;;
45274;SDS011;31019;43.780;25.948;2024-01-16T09:48:59;30.05;;;28.35;;
45274;SDS011;31019;43.780;25.948;2024-01-16T09:51:28;30.13;;;28.42;;
45274;SDS011;31019;43.780;25.948;2024-01-16T09:53:55;30.23;;;28.42;;
45274;SDS011;31019;43.780;25.948;2024-01-16T09:56:23;34.60;;;32.60;;
45274;SDS011;31019;43.780;25.948;2024-01-16T09:58:53;34.05;;;32.05;;
45274;SDS011;31019;43.780;25.948;2024-01-16T10:01:23;33.95;;;31.92;;
45274;SDS011;31019;43.780;25.948;2024-01-16T10:03:53;38.95;;;36.75;;
45274;SDS011;31019;43.780;25.948;2024-01-16T10:06:20;41.00;;;38.60;;
45274;SDS011;31019;43.780;25.948;2024-01-16T10:08:50;39.63;;;37.28;;
45274;SDS011;31019;43.780;25.948;2024-01-16T10:11:17;52.83;;;49.92;;
45274;SDS011;31019;43.780;25.948;2024-01-16T10:13:44;58.15;;;54.90;;
45274;SDS011;31019;43.780;25.948;2024-01-16T10:16:11;45.22;;;42.63;;
45274;SDS011;31019;43.780;25.948;2024-01-16T10:18:38;45.92;;;43.33;;
45274;SDS011;31019;43.780;25.948;2024-01-16T10:21:05;62.50;;;58.90;;
45274;SDS011;31019;43.780;25.948;2024-01-16T10:23:47;43.72;;;41.03;;
45274;SDS011;31019;43.780;25.948;2024-01-16T10:26:15;46.50;;;43.88;;
45274;SDS011;31019;43.780;25.948;2024-01-16T10:28:43;42.90;;;40.60;;
45274;SDS011;31019;43.780;25.948;2024-01-16T10:31:11;43.72;;;41.33;;
45274;SDS011;31019;43.780;25.948;2024-01-16T10:33:39;51.75;;;48.65;;
45274;SDS011;31019;43.780;25.948;2024-01-16T10:36:10;59.40;;;56.10;;
45274;SDS011;31019;43.780;25.948;2024-01-16T10:38:38;58.58;;;55.28;;
45274;SDS011;31019;43.780;25.948;2024-01-16T10:41:06;45.72;;;43.13;;
45274;SDS011;31019;43.780;25.948;2024-01-16T10:43:37;23.05;;;21.25;;
45274;SDS011;31019;43.780;25.948;2024-01-16T10:46:07;23.30;;;21.60;;
45274;SDS011;31019;43.780;25.948;2024-01-16T10:48:37;26.25;;;24.45;;
45274;SDS011;31019;43.780;25.948;2024-01-16T10:51:06;28.90;;;26.90;;
45274;SDS011;31019;43.780;25.948;2024-01-16T10:53:41;27.92;;;26.13;;
45274;SDS011;31019;43.780;25.948;2024-01-16T10:56:10;22.92;;;21.35;;
45274;SDS011;31019;43.780;25.948;2024-01-16T10:58:40;24.23;;;22.52;;
45274;SDS011;31019;43.780;25.948;2024-01-16T11:01:10;25.10;;;23.55;;
45274;SDS011;31019;43.780;25.948;2024-01-16T11:03:40;24.80;;;23.23;;
45274;SDS011;31019;43.780;25.948;2024-01-16T11:06:12;22.90;;;21.30;;
45274;SDS011;31019;43.780;25.948;2024-01-16T11:08:41;22.08;;;20.58;;
45274;SDS011;31019;43.780;25.948;2024-01-16T11:11:08;25.42;;;23.73;;
45274;SDS011;31019;43.780;25.948;2024-01-16T11:13:36;28.20;;;26.20;;
45274;SDS011;31019;43.780;25.948;2024-01-16T11:16:05;29.23;;;27.13;;
45274;SDS011;31019;43.780;25.948;2024-01-16T11:18:33;24.08;;;22.38;;
45274;SDS011;31019;43.780;25.948;2024-01-16T11:21:00;24.98;;;23.27;;
45274;SDS011;31019;43.780;25.948;2024-01-16T11:23:29;27.92;;;25.98;;
45274;SDS011;31019;43.780;25.948;2024-01-16T11:25:56;24.70;;;23.00;;
45274;SDS011;31019;43.780;25.948;2024-01-16T11:28:26;44.95;;;26.40;;
45274;SDS011;31019;43.780;25.948;2024-01-16T11:30:55;27.73;;;26.02;;
45274;SDS011;31019;43.780;25.948;2024-01-16T11:33:42;25.70;;;24.10;;
45274;SDS011;31019;43.780;25.948;2024-01-16T11:39:10;25.02;;;23.40;;
45274;SDS011;31019;43.780;25.948;2024-01-16T11:41:53;23.73;;;22.17;;
45274;SDS011;31019;43.780;25.948;2024-01-16T11:44:36;23.27;;;21.67;;
45274;SDS011;31019;43.780;25.948;2024-01-16T11:47:07;23.98;;;22.27;;
45274;SDS011;31019;43.780;25.948;2024-01-16T11:49:36;26.70;;;24.80;;
45274;SDS011;31019;43.780;25.948;2024-01-16T11:52:03;31.77;;;25.45;;
45274;SDS011;31019;43.780;25.948;2024-01-16T11:54:30;27.63;;;25.83;;
45274;SDS011;31019;43.780;25.948;2024-01-16T12:00:18;25.70;;;23.90;;
45274;SDS011;31019;43.780;25.948;2024-01-16T12:02:49;26.77;;;24.90;;
45274;SDS011;31019;43.780;25.948;2024-01-16T12:05:20;28.00;;;26.13;;
45274;SDS011;31019;43.780;25.948;2024-01-16T12:07:48;24.70;;;23.00;;
45274;SDS011;31019;43.780;25.948;2024-01-16T12:10:15;23.92;;;22.23;;
45274;SDS011;31019;43.780;25.948;2024-01-16T12:12:43;23.83;;;22.13;;
45274;SDS011;31019;43.780;25.948;2024-01-16T12:15:13;26.52;;;24.73;;
45274;SDS011;31019;43.780;25.948;2024-01-16T12:17:51;23.63;;;22.13;;
45274;SDS011;31019;43.780;25.948;2024-01-16T12:20:23;22.38;;;20.77;;
45274;SDS011;31019;43.780;25.948;2024-01-16T12:22:56;22.77;;;21.27;;
45274;SDS011;31019;43.780;25.948;2024-01-16T12:25:24;24.25;;;22.55;;
45274;SDS011;31019;43.780;25.948;2024-01-16T12:27:56;23.55;;;21.95;;
45274;SDS011;31019;43.780;25.948;2024-01-16T12:30:24;23.38;;;21.77;;
45274;SDS011;31019;43.780;25.948;2024-01-16T12:33:02;23.20;;;21.60;;
45274;SDS011;31019;43.780;25.948;2024-01-16T12:35:31;23.15;;;21.65;;
45274;SDS011;31019;43.780;25.948;2024-01-16T12:37:58;23.85;;;22.25;;
45274;SDS011;31019;43.780;25.948;2024-01-16T12:40:26;23.92;;;22.23;;
45274;SDS011;31019;43.780;25.948;2024-01-16T12:42:53;24.10;;;22.15;;
45274;SDS011;31019;43.780;25.948;2024-01-16T12:45:20;24.20;;;22.40;;
45274;SDS011;31019;43.780;25.948;2024-01-16T12:47:51;23.65;;;21.85;;
45274;SDS011;31019;43.780;25.948;2024-01-16T12:50:19;24.60;;;22.70;;
45274;SDS011;31019;43.780;25.948;2024-01-16T12:52:49;23.50;;;21.60;;
45274;SDS011;31019;43.780;25.948;2024-01-16T12:55:16;23.75;;;22.05;;
45274;SDS011;31019;43.780;25.948;2024-01-16T12:57:44;24.65;;;22.95;;
45274;SDS011;31019;43.780;25.948;2024-01-16T13:00:21;23.40;;;21.70;;
45274;SDS011;31019;43.780;25.948;2024-01-16T13:02:49;24.70;;;23.00;;
45274;SDS011;31019;43.780;25.948;2024-01-16T13:05:17;26.08;;;24.40;;
45274;SDS011;31019;43.780;25.948;2024-01-16T13:07:44;23.92;;;21.85;;
45274;SDS011;31019;43.780;25.948;2024-01-16T13:10:13;23.55;;;21.85;;
45274;SDS011;31019;43.780;25.948;2024-01-16T13:12:43;24.48;;;22.77;;
45274;SDS011;31019;43.780;25.948;2024-01-16T13:15:10;25.27;;;23.48;;
45274;SDS011;31019;43.780;25.948;2024-01-16T13:17:42;25.42;;;23.60;;
45274;SDS011;31019;43.780;25.948;2024-01-16T13:20:09;22.73;;;21.23;;
45274;SDS011;31019;43.780;25.948;2024-01-16T13:22:38;23.20;;;21.60;;
45274;SDS011;31019;43.780;25.948;2024-01-16T13:25:05;23.83;;;22.23;;
45274;SDS011;31019;43.780;25.948;2024-01-16T13:27:33;22.35;;;20.88;;
45274;SDS011;31019;43.780;25.948;2024-01-16T13:30:00;22.73;;;21.23;;
45274;SDS011;31019;43.780;25.948;2024-01-16T13:32:27;22.83;;;21.13;;
45274;SDS011;31019;43.780;25.948;2024-01-16T13:34:54;23.10;;;21.40;;
45274;SDS011;31019;43.780;25.948;2024-01-16T13:37:21;21.75;;;20.15;;
45274;SDS011;31019;43.780;25.948;2024-01-16T13:39:49;23.38;;;21.77;;
45274;SDS011;31019;43.780;25.948;2024-01-16T13:42:14;25.20;;;23.50;;
45274;SDS011;31019;43.780;25.948;2024-01-16T13:44:45;24.20;;;22.60;;
45274;SDS011;31019;43.780;25.948;2024-01-16T13:47:13;23.05;;;21.45;;
45274;SDS011;31019;43.780;25.948;2024-01-16T13:49:43;24.13;;;22.58;;
45274;SDS011;31019;43.780;25.948;2024-01-16T13:52:11;27.00;;;24.85;;
45274;SDS011;31019;43.780;25.948;2024-01-16T13:54:37;23.60;;;21.90;;
45274;SDS011;31019;43.780;25.948;2024-01-16T13:57:05;22.13;;;20.52;;
45274;SDS011;31019;43.780;25.948;2024-01-16T13:59:32;23.77;;;22.08;;
45274;SDS011;31019;43.780;25.948;2024-01-16T14:02:01;24.35;;;22.60;;
45274;SDS011;31019;43.780;25.948;2024-01-16T14:04:28;23.58;;;21.90;;
45274;SDS011;31019;43.780;25.948;2024-01-16T14:06:55;22.80;;;21.30;;
45274;SDS011;31019;43.780;25.948;2024-01-16T14:09:22;24.65;;;22.95;;
45274;SDS011;31019;43.780;25.948;2024-01-16T14:11:49;23.85;;;22.30;;
45274;SDS011;31019;43.780;25.948;2024-01-16T14:14:16;21.70;;;20.40;;
45274;SDS011;31019;43.780;25.948;2024-01-16T14:16:43;22.27;;;20.88;;